sensor_id;sensor_type;location;lat;lon;timestamp;P1;durP1;ratioP1;P2;durP2;ratioP2
21046;SDS011;10682;50.874;3.656;2023-06-19T00:01:08;10.85;;;7.03;;
21046;SDS011;10682;50.874;3.656;2023-06-19T00:03:35;11.50;;;6.63;;
21046;SDS011;10682;50.874;3.656;2023-06-19T00:06:02;12.85;;;6.97;;
21046;SDS011;10682;50.874;3.656;2023-06-19T00:08:29;10.02;;;6.40;;
21046;SDS011;10682;50.874;3.656;2023-06-19T00:10:57;12.35;;;6.60;;
21046;SDS011;10682;50.874;3.656;2023-06-19T00:13:24;9.15;;;6.57;;
21046;SDS011;10682;50.874;3.656;2023-06-19T00:15:51;13.95;;;6.75;;
21046;SDS011;10682;50.874;3.656;2023-06-19T00:18:18;12.13;;;6.70;;
21046;SDS011;10682;50.874;3.656;2023-06-19T00:20:46;10.13;;;6.53;;
21046;SDS011;10682;50.874;3.656;2023-06-19T00:23:13;9.68;;;6.63;;
21046;SDS011;10682;50.874;3.656;2023-06-19T00:25:43;11.93;;;6.63;;
21046;SDS011;10682;50.874;3.656;2023-06-19T00:28:10;10.85;;;6.32;;
21046;SDS011;10682;50.874;3.656;2023-06-19T00:30:40;12.10;;;6.20;;
21046;SDS011;10682;50.874;3.656;2023-06-19T00:33:08;15.35;;;6.57;;
21046;SDS011;10682;50.874;3.656;2023-06-19T00:35:35;11.32;;;6.90;;
21046;SDS011;10682;50.874;3.656;2023-06-19T00:38:03;12.70;;;6.55;;
21046;SDS011;10682;50.874;3.656;2023-06-19T00:40:32;12.05;;;6.80;;
21046;SDS011;10682;50.874;3.656;2023-06-19T00:43:00;14.77;;;7.00;;
21046;SDS011;10682;50.874;3.656;2023-06-19T00:45:28;8.88;;;6.65;;
21046;SDS011;10682;50.874;3.656;2023-06-19T00:47:55;12.35;;;7.65;;
21046;SDS011;10682;50.874;3.656;2023-06-19T00:50:24;16.85;;;7.10;;
21046;SDS011;10682;50.874;3.656;2023-06-19T00:52:52;13.45;;;7.00;;
21046;SDS011;10682;50.874;3.656;2023-06-19T00:55:20;11.63;;;6.90;;
21046;SDS011;10682;50.874;3.656;2023-06-19T00:57:48;11.80;;;7.05;;
21046;SDS011;10682;50.874;3.656;2023-06-19T01:00:16;9.02;;;6.53;;
21046;SDS011;10682;50.874;3.656;2023-06-19T01:02:44;11.65;;;6.47;;
21046;SDS011;10682;50.874;3.656;2023-06-19T01:05:13;17.20;;;6.93;;
21046;SDS011;10682;50.874;3.656;2023-06-19T01:10:27;9.40;;;6.28;;
21046;SDS011;10682;50.874;3.656;2023-06-19T01:13:02;12.52;;;6.80;;
21046;SDS011;10682;50.874;3.656;2023-06-19T01:15:39;15.48;;;7.65;;
21046;SDS011;10682;50.874;3.656;2023-06-19T01:18:08;11.80;;;7.60;;
21046;SDS011;10682;50.874;3.656;2023-06-19T01:20:39;10.77;;;7.75;;
21046;SDS011;10682;50.874;3.656;2023-06-19T01:23:10;12.30;;;7.38;;
21046;SDS011;10682;50.874;3.656;2023-06-19T01:25:38;11.48;;;7.50;;
21046;SDS011;10682;50.874;3.656;2023-06-19T01:28:06;11.02;;;7.35;;
21046;SDS011;10682;50.874;3.656;2023-06-19T01:30:39;13.88;;;7.90;;
21046;SDS011;10682;50.874;3.656;2023-06-19T01:35:42;15.35;;;7.88;;
21046;SDS011;10682;50.874;3.656;2023-06-19T01:38:10;15.55;;;8.98;;
21046;SDS011;10682;50.874;3.656;2023-06-19T01:40:38;16.73;;;8.77;;
21046;SDS011;10682;50.874;3.656;2023-06-19T01:43:07;14.98;;;8.80;;
21046;SDS011;10682;50.874;3.656;2023-06-19T01:45:35;17.23;;;9.27;;
21046;SDS011;10682;50.874;3.656;2023-06-19T01:48:02;15.57;;;9.75;;
21046;SDS011;10682;50.874;3.656;2023-06-19T01:50:29;15.57;;;10.20;;
21046;SDS011;10682;50.874;3.656;2023-06-19T01:52:56;16.95;;;11.07;;
21046;SDS011;10682;50.874;3.656;2023-06-19T01:55:24;18.80;;;10.43;;
21046;SDS011;10682;50.874;3.656;2023-06-19T01:57:51;16.73;;;10.50;;
21046;SDS011;10682;50.874;3.656;2023-06-19T02:00:18;16.15;;;9.75;;
21046;SDS011;10682;50.874;3.656;2023-06-19T02:02:45;16.27;;;10.45;;
21046;SDS011;10682;50.874;3.656;2023-06-19T02:05:12;16.77;;;9.70;;
21046;SDS011;10682;50.874;3.656;2023-06-19T02:07:40;17.67;;;9.00;;
21046;SDS011;10682;50.874;3.656;2023-06-19T02:10:07;12.68;;;7.88;;
21046;SDS011;10682;50.874;3.656;2023-06-19T02:12:34;13.60;;;7.22;;
21046;SDS011;10682;50.874;3.656;2023-06-19T02:15:02;12.05;;;7.10;;
21046;SDS011;10682;50.874;3.656;2023-06-19T02:17:29;12.27;;;6.57;;
21046;SDS011;10682;50.874;3.656;2023-06-19T02:19:57;13.88;;;6.55;;
21046;SDS011;10682;50.874;3.656;2023-06-19T02:22:24;10.73;;;5.78;;
21046;SDS011;10682;50.874;3.656;2023-06-19T02:24:51;8.27;;;5.88;;
21046;SDS011;10682;50.874;3.656;2023-06-19T02:27:18;10.52;;;6.22;;
21046;SDS011;10682;50.874;3.656;2023-06-19T02:29:45;8.88;;;6.00;;
21046;SDS011;10682;50.874;3.656;2023-06-19T02:32:12;12.77;;;6.20;;
21046;SDS011;10682;50.874;3.656;2023-06-19T02:34:39;11.73;;;7.00;;
21046;SDS011;10682;50.874;3.656;2023-06-19T02:37:06;13.05;;;7.35;;
21046;SDS011;10682;50.874;3.656;2023-06-19T02:39:34;8.98;;;7.20;;
21046;SDS011;10682;50.874;3.656;2023-06-19T02:42:01;15.30;;;8.98;;
21046;SDS011;10682;50.874;3.656;2023-06-19T02:44:28;18.50;;;9.35;;
21046;SDS011;10682;50.874;3.656;2023-06-19T02:46:55;15.43;;;10.40;;
21046;SDS011;10682;50.874;3.656;2023-06-19T02:49:22;16.23;;;10.52;;
21046;SDS011;10682;50.874;3.656;2023-06-19T02:51:49;14.18;;;9.48;;
21046;SDS011;10682;50.874;3.656;2023-06-19T02:54:16;17.40;;;10.20;;
21046;SDS011;10682;50.874;3.656;2023-06-19T02:56:43;15.90;;;9.88;;
21046;SDS011;10682;50.874;3.656;2023-06-19T02:59:10;16.33;;;10.70;;
21046;SDS011;10682;50.874;3.656;2023-06-19T03:01:37;15.07;;;10.13;;
21046;SDS011;10682;50.874;3.656;2023-06-19T03:04:04;17.35;;;10.80;;
21046;SDS011;10682;50.874;3.656;2023-06-19T03:06:31;22.38;;;11.73;;
21046;SDS011;10682;50.874;3.656;2023-06-19T03:09:06;20.25;;;12.43;;
21046;SDS011;10682;50.874;3.656;2023-06-19T03:11:39;19.98;;;12.70;;
21046;SDS011;10682;50.874;3.656;2023-06-19T03:14:07;26.08;;;14.10;;
21046;SDS011;10682;50.874;3.656;2023-06-19T03:16:35;25.48;;;14.82;;
21046;SDS011;10682;50.874;3.656;2023-06-19T03:19:08;24.60;;;14.88;;
21046;SDS011;10682;50.874;3.656;2023-06-19T03:21:35;24.92;;;14.35;;
21046;SDS011;10682;50.874;3.656;2023-06-19T03:24:02;25.67;;;15.40;;
21046;SDS011;10682;50.874;3.656;2023-06-19T03:26:30;26.58;;;14.65;;
21046;SDS011;10682;50.874;3.656;2023-06-19T03:28:57;24.40;;;13.95;;
21046;SDS011;10682;50.874;3.656;2023-06-19T03:31:24;21.67;;;14.32;;
21046;SDS011;10682;50.874;3.656;2023-06-19T03:33:51;20.23;;;13.70;;
21046;SDS011;10682;50.874;3.656;2023-06-19T03:36:18;23.50;;;14.05;;
21046;SDS011;10682;50.874;3.656;2023-06-19T03:38:45;19.90;;;12.77;;
21046;SDS011;10682;50.874;3.656;2023-06-19T03:41:12;20.50;;;13.00;;
21046;SDS011;10682;50.874;3.656;2023-06-19T03:43:39;21.50;;;13.98;;
21046;SDS011;10682;50.874;3.656;2023-06-19T03:46:06;21.48;;;13.82;;
21046;SDS011;10682;50.874;3.656;2023-06-19T03:48:33;22.48;;;15.25;;
21046;SDS011;10682;50.874;3.656;2023-06-19T03:51:00;26.85;;;15.20;;
21046;SDS011;10682;50.874;3.656;2023-06-19T03:53:27;25.83;;;15.70;;
21046;SDS011;10682;50.874;3.656;2023-06-19T03:55:55;28.20;;;17.17;;
21046;SDS011;10682;50.874;3.656;2023-06-19T03:58:22;27.95;;;17.65;;
21046;SDS011;10682;50.874;3.656;2023-06-19T04:00:49;28.52;;;16.98;;
21046;SDS011;10682;50.874;3.656;2023-06-19T04:03:17;27.70;;;17.48;;
21046;SDS011;10682;50.874;3.656;2023-06-19T04:05:44;29.42;;;19.52;;
21046;SDS011;10682;50.874;3.656;2023-06-19T04:08:11;34.58;;;20.30;;
21046;SDS011;10682;50.874;3.656;2023-06-19T04:10:38;34.33;;;19.80;;
21046;SDS011;10682;50.874;3.656;2023-06-19T04:13:05;32.55;;;19.27;;
21046;SDS011;10682;50.874;3.656;2023-06-19T04:15:33;32.67;;;20.40;;
21046;SDS011;10682;50.874;3.656;2023-06-19T04:18:02;32.72;;;20.75;;
21046;SDS011;10682;50.874;3.656;2023-06-19T04:20:29;31.00;;;20.67;;
21046;SDS011;10682;50.874;3.656;2023-06-19T04:22:56;34.53;;;19.95;;
21046;SDS011;10682;50.874;3.656;2023-06-19T04:25:23;31.45;;;20.50;;
21046;SDS011;10682;50.874;3.656;2023-06-19T04:27:50;33.03;;;22.50;;
21046;SDS011;10682;50.874;3.656;2023-06-19T04:30:17;38.90;;;21.40;;
21046;SDS011;10682;50.874;3.656;2023-06-19T04:32:47;31.90;;;20.92;;
21046;SDS011;10682;50.874;3.656;2023-06-19T04:35:15;34.75;;;20.77;;
21046;SDS011;10682;50.874;3.656;2023-06-19T04:37:44;35.17;;;21.65;;
21046;SDS011;10682;50.874;3.656;2023-06-19T04:40:15;33.08;;;21.08;;
21046;SDS011;10682;50.874;3.656;2023-06-19T04:42:42;35.75;;;22.30;;
21046;SDS011;10682;50.874;3.656;2023-06-19T04:45:09;41.00;;;23.00;;
21046;SDS011;10682;50.874;3.656;2023-06-19T04:47:36;36.22;;;22.02;;
21046;SDS011;10682;50.874;3.656;2023-06-19T04:50:18;36.35;;;21.75;;
21046;SDS011;10682;50.874;3.656;2023-06-19T04:52:47;32.42;;;21.10;;
21046;SDS011;10682;50.874;3.656;2023-06-19T04:55:17;34.35;;;20.70;;
21046;SDS011;10682;50.874;3.656;2023-06-19T04:57:44;35.13;;;21.52;;
21046;SDS011;10682;50.874;3.656;2023-06-19T05:00:11;31.70;;;21.45;;
21046;SDS011;10682;50.874;3.656;2023-06-19T05:02:40;36.47;;;19.98;;
21046;SDS011;10682;50.874;3.656;2023-06-19T05:05:10;31.23;;;20.73;;
21046;SDS011;10682;50.874;3.656;2023-06-19T05:07:37;36.70;;;22.08;;
21046;SDS011;10682;50.874;3.656;2023-06-19T05:10:05;36.08;;;21.63;;
21046;SDS011;10682;50.874;3.656;2023-06-19T05:12:36;34.08;;;21.85;;
21046;SDS011;10682;50.874;3.656;2023-06-19T05:15:03;40.15;;;22.75;;
21046;SDS011;10682;50.874;3.656;2023-06-19T05:17:31;35.15;;;22.20;;
21046;SDS011;10682;50.874;3.656;2023-06-19T05:19:58;35.70;;;22.30;;
21046;SDS011;10682;50.874;3.656;2023-06-19T05:22:25;36.65;;;21.50;;
21046;SDS011;10682;50.874;3.656;2023-06-19T05:24:53;34.95;;;21.73;;
21046;SDS011;10682;50.874;3.656;2023-06-19T05:27:20;32.38;;;21.65;;
21046;SDS011;10682;50.874;3.656;2023-06-19T05:29:47;31.25;;;21.23;;
21046;SDS011;10682;50.874;3.656;2023-06-19T05:32:14;36.80;;;22.55;;
21046;SDS011;10682;50.874;3.656;2023-06-19T05:34:41;39.00;;;22.58;;
21046;SDS011;10682;50.874;3.656;2023-06-19T05:37:08;35.80;;;22.35;;
21046;SDS011;10682;50.874;3.656;2023-06-19T05:39:35;36.40;;;22.30;;
21046;SDS011;10682;50.874;3.656;2023-06-19T05:42:02;40.75;;;23.23;;
21046;SDS011;10682;50.874;3.656;2023-06-19T05:44:29;35.47;;;22.80;;
21046;SDS011;10682;50.874;3.656;2023-06-19T05:46:56;36.58;;;22.77;;
21046;SDS011;10682;50.874;3.656;2023-06-19T05:49:23;33.40;;;22.98;;
21046;SDS011;10682;50.874;3.656;2023-06-19T05:51:50;41.90;;;23.00;;
21046;SDS011;10682;50.874;3.656;2023-06-19T05:54:17;32.67;;;21.67;;
21046;SDS011;10682;50.874;3.656;2023-06-19T05:56:44;35.15;;;22.92;;
21046;SDS011;10682;50.874;3.656;2023-06-19T05:59:11;35.63;;;21.38;;
21046;SDS011;10682;50.874;3.656;2023-06-19T06:01:41;35.03;;;21.80;;
21046;SDS011;10682;50.874;3.656;2023-06-19T06:04:08;39.15;;;22.60;;
21046;SDS011;10682;50.874;3.656;2023-06-19T06:06:35;32.75;;;20.85;;
21046;SDS011;10682;50.874;3.656;2023-06-19T06:09:02;31.08;;;19.27;;
21046;SDS011;10682;50.874;3.656;2023-06-19T06:11:30;32.47;;;20.25;;
21046;SDS011;10682;50.874;3.656;2023-06-19T06:13:57;34.17;;;20.38;;
21046;SDS011;10682;50.874;3.656;2023-06-19T06:16:24;30.75;;;20.05;;
21046;SDS011;10682;50.874;3.656;2023-06-19T06:18:51;34.03;;;20.27;;
21046;SDS011;10682;50.874;3.656;2023-06-19T06:21:18;35.78;;;20.95;;
21046;SDS011;10682;50.874;3.656;2023-06-19T06:23:45;34.33;;;21.13;;
21046;SDS011;10682;50.874;3.656;2023-06-19T06:26:14;32.60;;;20.27;;
21046;SDS011;10682;50.874;3.656;2023-06-19T06:28:41;31.33;;;18.92;;
21046;SDS011;10682;50.874;3.656;2023-06-19T06:31:08;31.98;;;19.83;;
21046;SDS011;10682;50.874;3.656;2023-06-19T06:33:35;28.55;;;19.35;;
21046;SDS011;10682;50.874;3.656;2023-06-19T06:36:02;33.15;;;19.70;;
21046;SDS011;10682;50.874;3.656;2023-06-19T06:38:30;31.08;;;20.17;;
21046;SDS011;10682;50.874;3.656;2023-06-19T06:41:00;32.70;;;20.05;;
21046;SDS011;10682;50.874;3.656;2023-06-19T06:43:27;28.35;;;19.30;;
21046;SDS011;10682;50.874;3.656;2023-06-19T06:45:54;33.60;;;20.23;;
21046;SDS011;10682;50.874;3.656;2023-06-19T06:48:21;30.88;;;19.42;;
21046;SDS011;10682;50.874;3.656;2023-06-19T06:50:48;31.42;;;18.25;;
21046;SDS011;10682;50.874;3.656;2023-06-19T06:53:15;31.42;;;19.48;;
21046;SDS011;10682;50.874;3.656;2023-06-19T06:55:42;30.77;;;18.77;;
21046;SDS011;10682;50.874;3.656;2023-06-19T06:58:09;28.17;;;17.83;;
21046;SDS011;10682;50.874;3.656;2023-06-19T07:00:38;31.83;;;18.85;;
21046;SDS011;10682;50.874;3.656;2023-06-19T07:03:05;28.65;;;18.10;;
21046;SDS011;10682;50.874;3.656;2023-06-19T07:05:33;27.17;;;17.38;;
21046;SDS011;10682;50.874;3.656;2023-06-19T07:08:00;29.27;;;17.65;;
21046;SDS011;10682;50.874;3.656;2023-06-19T07:10:28;30.73;;;18.90;;
21046;SDS011;10682;50.874;3.656;2023-06-19T07:12:56;29.50;;;18.42;;
21046;SDS011;10682;50.874;3.656;2023-06-19T07:15:22;28.75;;;17.50;;
21046;SDS011;10682;50.874;3.656;2023-06-19T07:17:50;28.60;;;17.38;;
21046;SDS011;10682;50.874;3.656;2023-06-19T07:20:17;30.35;;;16.92;;
21046;SDS011;10682;50.874;3.656;2023-06-19T07:22:44;23.75;;;16.52;;
21046;SDS011;10682;50.874;3.656;2023-06-19T07:25:12;25.92;;;16.67;;
21046;SDS011;10682;50.874;3.656;2023-06-19T07:27:40;26.80;;;17.35;;
21046;SDS011;10682;50.874;3.656;2023-06-19T07:30:07;28.42;;;17.30;;
21046;SDS011;10682;50.874;3.656;2023-06-19T07:32:34;24.27;;;16.67;;
21046;SDS011;10682;50.874;3.656;2023-06-19T07:35:02;27.10;;;17.23;;
21046;SDS011;10682;50.874;3.656;2023-06-19T07:37:30;26.58;;;16.83;;
21046;SDS011;10682;50.874;3.656;2023-06-19T07:40:00;27.30;;;16.25;;
21046;SDS011;10682;50.874;3.656;2023-06-19T07:42:28;26.50;;;15.98;;
21046;SDS011;10682;50.874;3.656;2023-06-19T07:44:55;27.63;;;16.63;;
21046;SDS011;10682;50.874;3.656;2023-06-19T07:47:22;25.98;;;15.82;;
21046;SDS011;10682;50.874;3.656;2023-06-19T07:49:49;29.48;;;15.95;;
21046;SDS011;10682;50.874;3.656;2023-06-19T07:52:16;26.10;;;16.00;;
21046;SDS011;10682;50.874;3.656;2023-06-19T07:55:16;21.13;;;13.05;;
21046;SDS011;10682;50.874;3.656;2023-06-19T07:57:36;22.35;;;15.32;;
21046;SDS011;10682;50.874;3.656;2023-06-19T08:00:03;24.23;;;14.70;;
21046;SDS011;10682;50.874;3.656;2023-06-19T08:02:37;22.40;;;14.00;;
21046;SDS011;10682;50.874;3.656;2023-06-19T08:05:05;24.90;;;16.23;;
21046;SDS011;10682;50.874;3.656;2023-06-19T08:07:34;26.90;;;15.98;;
21046;SDS011;10682;50.874;3.656;2023-06-19T08:10:02;22.25;;;15.00;;
21046;SDS011;10682;50.874;3.656;2023-06-19T08:12:52;26.70;;;15.13;;
21046;SDS011;10682;50.874;3.656;2023-06-19T08:15:19;22.42;;;14.57;;
21046;SDS011;10682;50.874;3.656;2023-06-19T08:17:46;22.30;;;14.35;;
21046;SDS011;10682;50.874;3.656;2023-06-19T08:20:13;22.63;;;13.88;;
21046;SDS011;10682;50.874;3.656;2023-06-19T08:22:42;26.42;;;15.70;;
21046;SDS011;10682;50.874;3.656;2023-06-19T08:25:09;28.10;;;15.30;;
21046;SDS011;10682;50.874;3.656;2023-06-19T08:27:36;24.30;;;15.73;;
21046;SDS011;10682;50.874;3.656;2023-06-19T08:30:03;19.52;;;14.43;;
21046;SDS011;10682;50.874;3.656;2023-06-19T08:32:30;23.77;;;14.23;;
21046;SDS011;10682;50.874;3.656;2023-06-19T08:34:58;21.23;;;13.45;;
21046;SDS011;10682;50.874;3.656;2023-06-19T08:37:25;19.75;;;13.57;;
21046;SDS011;10682;50.874;3.656;2023-06-19T08:39:52;24.08;;;14.50;;
21046;SDS011;10682;50.874;3.656;2023-06-19T08:42:19;24.50;;;13.77;;
21046;SDS011;10682;50.874;3.656;2023-06-19T08:44:46;26.17;;;13.82;;
21046;SDS011;10682;50.874;3.656;2023-06-19T08:47:13;22.52;;;14.48;;
21046;SDS011;10682;50.874;3.656;2023-06-19T08:49:40;19.30;;;12.35;;
21046;SDS011;10682;50.874;3.656;2023-06-19T08:52:07;23.30;;;13.20;;
21046;SDS011;10682;50.874;3.656;2023-06-19T08:54:34;17.98;;;12.75;;
21046;SDS011;10682;50.874;3.656;2023-06-19T08:57:10;17.20;;;11.68;;
21046;SDS011;10682;50.874;3.656;2023-06-19T08:59:38;20.50;;;12.85;;
21046;SDS011;10682;50.874;3.656;2023-06-19T09:02:06;20.05;;;11.60;;
21046;SDS011;10682;50.874;3.656;2023-06-19T09:04:33;16.23;;;10.63;;
21046;SDS011;10682;50.874;3.656;2023-06-19T09:07:01;18.05;;;11.57;;
21046;SDS011;10682;50.874;3.656;2023-06-19T09:09:31;18.73;;;11.63;;
21046;SDS011;10682;50.874;3.656;2023-06-19T09:17:05;22.15;;;12.48;;
21046;SDS011;10682;50.874;3.656;2023-06-19T09:19:37;17.95;;;10.73;;
21046;SDS011;10682;50.874;3.656;2023-06-19T09:22:07;21.33;;;11.95;;
21046;SDS011;10682;50.874;3.656;2023-06-19T09:24:35;19.45;;;11.85;;
21046;SDS011;10682;50.874;3.656;2023-06-19T09:27:05;21.27;;;11.40;;
21046;SDS011;10682;50.874;3.656;2023-06-19T09:29:43;26.60;;;11.75;;
21046;SDS011;10682;50.874;3.656;2023-06-19T09:34:55;21.75;;;13.40;;
21046;SDS011;10682;50.874;3.656;2023-06-19T09:37:30;18.33;;;12.30;;
21046;SDS011;10682;50.874;3.656;2023-06-19T09:39:58;18.20;;;12.55;;
21046;SDS011;10682;50.874;3.656;2023-06-19T09:42:37;17.88;;;11.75;;
21046;SDS011;10682;50.874;3.656;2023-06-19T09:45:10;22.48;;;12.38;;
21046;SDS011;10682;50.874;3.656;2023-06-19T09:47:44;18.60;;;12.82;;
21046;SDS011;10682;50.874;3.656;2023-06-19T09:50:16;20.25;;;13.18;;
21046;SDS011;10682;50.874;3.656;2023-06-19T09:52:44;20.33;;;13.68;;
21046;SDS011;10682;50.874;3.656;2023-06-19T09:55:13;17.52;;;11.80;;
21046;SDS011;10682;50.874;3.656;2023-06-19T09:57:41;22.95;;;13.48;;
21046;SDS011;10682;50.874;3.656;2023-06-19T10:00:10;21.95;;;14.00;;
21046;SDS011;10682;50.874;3.656;2023-06-19T10:02:41;23.95;;;11.73;;
21046;SDS011;10682;50.874;3.656;2023-06-19T10:05:10;19.70;;;12.93;;
21046;SDS011;10682;50.874;3.656;2023-06-19T10:07:42;18.95;;;12.50;;
21046;SDS011;10682;50.874;3.656;2023-06-19T10:10:12;17.15;;;12.10;;
21046;SDS011;10682;50.874;3.656;2023-06-19T10:12:53;14.55;;;10.07;;
21046;SDS011;10682;50.874;3.656;2023-06-19T10:15:24;18.60;;;11.00;;
21046;SDS011;10682;50.874;3.656;2023-06-19T10:18:04;23.70;;;13.75;;
21046;SDS011;10682;50.874;3.656;2023-06-19T10:20:34;20.58;;;11.77;;
21046;SDS011;10682;50.874;3.656;2023-06-19T10:23:13;16.25;;;11.15;;
21046;SDS011;10682;50.874;3.656;2023-06-19T10:25:45;18.38;;;11.80;;
21046;SDS011;10682;50.874;3.656;2023-06-19T10:28:19;18.13;;;11.98;;
21046;SDS011;10682;50.874;3.656;2023-06-19T10:33:33;15.05;;;10.45;;
21046;SDS011;10682;50.874;3.656;2023-06-19T10:36:16;15.40;;;11.00;;
21046;SDS011;10682;50.874;3.656;2023-06-19T10:38:48;17.10;;;10.38;;
21046;SDS011;10682;50.874;3.656;2023-06-19T10:41:16;19.08;;;11.50;;
21046;SDS011;10682;50.874;3.656;2023-06-19T10:46:32;16.40;;;11.02;;
21046;SDS011;10682;50.874;3.656;2023-06-19T10:49:04;13.82;;;9.85;;
21046;SDS011;10682;50.874;3.656;2023-06-19T10:51:34;15.60;;;10.70;;
21046;SDS011;10682;50.874;3.656;2023-06-19T10:54:04;18.88;;;11.55;;
21046;SDS011;10682;50.874;3.656;2023-06-19T10:56:33;22.08;;;12.50;;
21046;SDS011;10682;50.874;3.656;2023-06-19T10:59:02;19.33;;;12.75;;
21046;SDS011;10682;50.874;3.656;2023-06-19T11:01:33;21.70;;;12.80;;
21046;SDS011;10682;50.874;3.656;2023-06-19T11:04:06;19.55;;;12.85;;
21046;SDS011;10682;50.874;3.656;2023-06-19T11:06:36;17.67;;;13.00;;
21046;SDS011;10682;50.874;3.656;2023-06-19T11:09:05;19.25;;;13.25;;
21046;SDS011;10682;50.874;3.656;2023-06-19T11:11:38;27.05;;;20.10;;
21046;SDS011;10682;50.874;3.656;2023-06-19T11:14:13;26.98;;;18.90;;
21046;SDS011;10682;50.874;3.656;2023-06-19T11:16:44;25.98;;;18.98;;
21046;SDS011;10682;50.874;3.656;2023-06-19T11:19:20;30.05;;;18.55;;
21046;SDS011;10682;50.874;3.656;2023-06-19T11:21:50;29.75;;;20.20;;
21046;SDS011;10682;50.874;3.656;2023-06-19T11:24:18;22.38;;;18.83;;
21046;SDS011;10682;50.874;3.656;2023-06-19T11:26:48;26.80;;;18.05;;
21046;SDS011;10682;50.874;3.656;2023-06-19T11:29:22;27.23;;;16.40;;
21046;SDS011;10682;50.874;3.656;2023-06-19T11:32:08;23.63;;;16.27;;
21046;SDS011;10682;50.874;3.656;2023-06-19T11:34:39;22.90;;;15.10;;
21046;SDS011;10682;50.874;3.656;2023-06-19T11:37:13;21.45;;;14.35;;
21046;SDS011;10682;50.874;3.656;2023-06-19T11:39:45;25.05;;;14.90;;
21046;SDS011;10682;50.874;3.656;2023-06-19T11:42:16;18.73;;;13.95;;
21046;SDS011;10682;50.874;3.656;2023-06-19T11:44:56;19.45;;;14.32;;
21046;SDS011;10682;50.874;3.656;2023-06-19T11:47:32;20.75;;;12.68;;
21046;SDS011;10682;50.874;3.656;2023-06-19T11:49:59;16.95;;;11.60;;
21046;SDS011;10682;50.874;3.656;2023-06-19T11:52:29;18.55;;;12.43;;
21046;SDS011;10682;50.874;3.656;2023-06-19T11:54:56;14.05;;;9.10;;
21046;SDS011;10682;50.874;3.656;2023-06-19T11:57:23;15.15;;;9.85;;
21046;SDS011;10682;50.874;3.656;2023-06-19T11:59:50;18.58;;;11.30;;
21046;SDS011;10682;50.874;3.656;2023-06-19T12:02:17;13.55;;;8.90;;
21046;SDS011;10682;50.874;3.656;2023-06-19T12:04:44;14.45;;;9.05;;
21046;SDS011;10682;50.874;3.656;2023-06-19T12:07:12;13.02;;;8.52;;
21046;SDS011;10682;50.874;3.656;2023-06-19T12:09:39;12.88;;;8.38;;
21046;SDS011;10682;50.874;3.656;2023-06-19T12:12:06;16.10;;;8.00;;
21046;SDS011;10682;50.874;3.656;2023-06-19T12:14:34;14.95;;;8.45;;
21046;SDS011;10682;50.874;3.656;2023-06-19T12:17:01;15.45;;;7.82;;
21046;SDS011;10682;50.874;3.656;2023-06-19T12:19:28;13.18;;;7.45;;
21046;SDS011;10682;50.874;3.656;2023-06-19T12:21:56;13.88;;;7.40;;
21046;SDS011;10682;50.874;3.656;2023-06-19T12:24:25;11.48;;;7.25;;
21046;SDS011;10682;50.874;3.656;2023-06-19T12:26:52;13.65;;;7.43;;
21046;SDS011;10682;50.874;3.656;2023-06-19T12:29:19;14.70;;;7.35;;
21046;SDS011;10682;50.874;3.656;2023-06-19T12:31:50;17.65;;;7.68;;
21046;SDS011;10682;50.874;3.656;2023-06-19T12:34:17;14.77;;;7.55;;
21046;SDS011;10682;50.874;3.656;2023-06-19T12:36:56;11.57;;;7.00;;
21046;SDS011;10682;50.874;3.656;2023-06-19T12:39:24;13.63;;;7.53;;
21046;SDS011;10682;50.874;3.656;2023-06-19T12:41:51;11.48;;;7.03;;
21046;SDS011;10682;50.874;3.656;2023-06-19T12:44:18;11.98;;;7.53;;
21046;SDS011;10682;50.874;3.656;2023-06-19T12:46:48;15.10;;;7.47;;
21046;SDS011;10682;50.874;3.656;2023-06-19T12:49:15;15.90;;;8.15;;
21046;SDS011;10682;50.874;3.656;2023-06-19T12:51:42;12.35;;;7.18;;
21046;SDS011;10682;50.874;3.656;2023-06-19T12:54:09;11.85;;;7.65;;
21046;SDS011;10682;50.874;3.656;2023-06-19T12:56:36;12.88;;;7.40;;
21046;SDS011;10682;50.874;3.656;2023-06-19T12:59:03;11.98;;;7.10;;
21046;SDS011;10682;50.874;3.656;2023-06-19T13:01:33;10.40;;;7.47;;
21046;SDS011;10682;50.874;3.656;2023-06-19T13:04:00;13.73;;;7.60;;
21046;SDS011;10682;50.874;3.656;2023-06-19T13:06:27;14.40;;;7.32;;
21046;SDS011;10682;50.874;3.656;2023-06-19T13:08:54;11.65;;;7.55;;
21046;SDS011;10682;50.874;3.656;2023-06-19T13:11:21;11.57;;;6.88;;
21046;SDS011;10682;50.874;3.656;2023-06-19T13:13:48;11.23;;;7.28;;
21046;SDS011;10682;50.874;3.656;2023-06-19T13:16:15;11.05;;;7.00;;
21046;SDS011;10682;50.874;3.656;2023-06-19T13:18:55;10.65;;;6.78;;
21046;SDS011;10682;50.874;3.656;2023-06-19T13:21:23;13.48;;;7.22;;
21046;SDS011;10682;50.874;3.656;2023-06-19T13:23:50;12.38;;;6.85;;
21046;SDS011;10682;50.874;3.656;2023-06-19T13:26:20;11.18;;;7.05;;
21046;SDS011;10682;50.874;3.656;2023-06-19T13:28:47;12.02;;;6.80;;
21046;SDS011;10682;50.874;3.656;2023-06-19T13:31:14;13.50;;;6.63;;
21046;SDS011;10682;50.874;3.656;2023-06-19T13:33:41;12.40;;;7.13;;
21046;SDS011;10682;50.874;3.656;2023-06-19T13:36:08;11.75;;;6.38;;
21046;SDS011;10682;50.874;3.656;2023-06-19T13:38:35;11.60;;;7.10;;
21046;SDS011;10682;50.874;3.656;2023-06-19T13:41:02;14.95;;;7.25;;
21046;SDS011;10682;50.874;3.656;2023-06-19T13:43:29;10.30;;;6.65;;
21046;SDS011;10682;50.874;3.656;2023-06-19T13:45:59;11.55;;;7.05;;
21046;SDS011;10682;50.874;3.656;2023-06-19T13:48:29;9.77;;;6.40;;
21046;SDS011;10682;50.874;3.656;2023-06-19T13:50:56;13.02;;;6.60;;
21046;SDS011;10682;50.874;3.656;2023-06-19T13:53:25;10.40;;;6.65;;
21046;SDS011;10682;50.874;3.656;2023-06-19T13:55:54;11.00;;;6.13;;
21046;SDS011;10682;50.874;3.656;2023-06-19T13:58:22;10.93;;;6.45;;
21046;SDS011;10682;50.874;3.656;2023-06-19T14:00:49;10.68;;;6.30;;
21046;SDS011;10682;50.874;3.656;2023-06-19T14:03:16;10.57;;;6.32;;
21046;SDS011;10682;50.874;3.656;2023-06-19T14:05:43;10.30;;;5.90;;
21046;SDS011;10682;50.874;3.656;2023-06-19T14:08:10;10.48;;;6.45;;
21046;SDS011;10682;50.874;3.656;2023-06-19T14:10:37;9.82;;;6.43;;
21046;SDS011;10682;50.874;3.656;2023-06-19T14:13:04;9.30;;;6.18;;
21046;SDS011;10682;50.874;3.656;2023-06-19T14:15:32;10.25;;;7.05;;
21046;SDS011;10682;50.874;3.656;2023-06-19T14:17:58;12.55;;;7.07;;
21046;SDS011;10682;50.874;3.656;2023-06-19T14:20:26;9.98;;;6.25;;
21046;SDS011;10682;50.874;3.656;2023-06-19T14:22:53;13.90;;;6.55;;
21046;SDS011;10682;50.874;3.656;2023-06-19T14:25:20;8.82;;;6.03;;
21046;SDS011;10682;50.874;3.656;2023-06-19T14:27:48;9.85;;;6.50;;
21046;SDS011;10682;50.874;3.656;2023-06-19T14:30:15;11.07;;;6.63;;
21046;SDS011;10682;50.874;3.656;2023-06-19T14:32:42;11.00;;;6.70;;
21046;SDS011;10682;50.874;3.656;2023-06-19T14:35:10;11.35;;;6.80;;
21046;SDS011;10682;50.874;3.656;2023-06-19T14:37:37;9.35;;;6.35;;
21046;SDS011;10682;50.874;3.656;2023-06-19T14:40:04;10.13;;;6.47;;
21046;SDS011;10682;50.874;3.656;2023-06-19T14:42:32;13.40;;;6.82;;
21046;SDS011;10682;50.874;3.656;2023-06-19T14:44:59;11.07;;;6.97;;
21046;SDS011;10682;50.874;3.656;2023-06-19T14:47:26;11.40;;;7.72;;
21046;SDS011;10682;50.874;3.656;2023-06-19T14:49:53;10.60;;;6.63;;
21046;SDS011;10682;50.874;3.656;2023-06-19T14:52:20;11.63;;;6.82;;